createdAt,value
2023-03-13T00:00:08.883Z,6.35
2023-03-13T00:01:08.848Z,6.36
2023-03-13T00:02:08.943Z,6.36
2023-03-13T00:03:08.832Z,6.35
2023-03-13T00:04:08.836Z,6.34
2023-03-13T00:05:09.029Z,6.34
2023-03-13T00:06:08.809Z,6.36
2023-03-13T00:07:08.806Z,6.38
2023-03-13T00:08:08.777Z,6.41
2023-03-13T00:09:08.768Z,6.43
2023-03-13T00:10:08.761Z,6.46
2023-03-13T00:11:08.743Z,6.47
2023-03-13T00:12:08.749Z,6.49
2023-03-13T00:13:08.721Z,6.47
2023-03-13T00:14:08.719Z,6.46
2023-03-13T00:15:08.703Z,6.47
2023-03-13T00:16:08.749Z,6.50
2023-03-13T00:17:08.798Z,6.41
2023-03-13T00:18:08.671Z,6.41
2023-03-13T00:19:08.689Z,6.49
2023-03-13T00:20:08.646Z,6.50
2023-03-13T00:21:08.638Z,6.53
2023-03-13T00:22:08.657Z,6.54
2023-03-13T00:23:08.619Z,6.59
2023-03-13T00:24:08.609Z,6.60
2023-03-13T00:25:08.602Z,6.62
2023-03-13T00:26:08.641Z,6.62
2023-03-13T00:27:08.588Z,6.62
2023-03-13T00:28:08.564Z,6.62
2023-03-13T00:29:08.542Z,6.67
2023-03-13T00:30:08.539Z,6.71
2023-03-13T00:31:08.561Z,6.72
2023-03-13T00:32:08.593Z,6.75
2023-03-13T00:33:08.521Z,6.74
2023-03-13T00:34:08.496Z,6.78
2023-03-13T00:35:08.488Z,6.77
2023-03-13T00:36:08.494Z,6.92
2023-03-13T00:37:08.472Z,6.97
2023-03-13T00:38:08.450Z,7.11
2023-03-13T00:39:08.439Z,7.13
2023-03-13T00:40:08.433Z,7.11
2023-03-13T00:41:08.417Z,7.19
2023-03-13T00:42:08.424Z,7.25
2023-03-13T00:43:08.386Z,7.33
2023-03-13T00:44:08.388Z,7.41
2023-03-13T00:45:08.405Z,7.46
2023-03-13T00:46:08.436Z,7.53
2023-03-13T00:47:08.366Z,7.58
2023-03-13T00:48:08.435Z,7.58
2023-03-13T00:49:08.339Z,7.70
2023-03-13T00:50:08.331Z,7.77
2023-03-13T00:51:08.305Z,7.80
2023-03-13T00:52:08.307Z,7.85
2023-03-13T00:53:08.304Z,7.93
2023-03-13T00:54:08.284Z,8.05
2023-03-13T00:55:08.263Z,8.21
2023-03-13T00:56:08.256Z,8.38
2023-03-13T00:57:08.250Z,8.52
2023-03-13T00:58:08.227Z,8.64
2023-03-13T00:59:08.225Z,8.68
2023-03-13T01:00:08.212Z,8.77
2023-03-13T01:01:08.205Z,8.87
2023-03-13T01:02:08.361Z,9.00
2023-03-13T01:03:08.252Z,9.27
2023-03-13T01:04:08.186Z,9.44
2023-03-13T01:05:08.162Z,9.55
2023-03-13T01:06:08.163Z,9.59
2023-03-13T01:07:08.182Z,9.63
2023-03-13T01:08:08.137Z,9.64
2023-03-13T01:09:08.139Z,9.70
2023-03-13T01:10:08.135Z,9.77
2023-03-13T01:11:08.107Z,10.05
2023-03-13T01:12:08.093Z,10.28
2023-03-13T01:13:08.089Z,10.57
2023-03-13T01:14:08.083Z,10.59
2023-03-13T01:15:08.073Z,10.75
2023-03-13T01:16:08.146Z,10.77
2023-03-13T01:17:08.045Z,10.75
2023-03-13T01:18:08.033Z,10.71
2023-03-13T01:19:08.109Z,10.59
2023-03-13T01:20:08.053Z,10.58
2023-03-13T01:21:08.043Z,10.58
2023-03-13T01:22:07.997Z,10.53
2023-03-13T01:23:07.983Z,10.43
2023-03-13T01:24:07.968Z,10.39
2023-03-13T01:25:07.949Z,10.36
2023-03-13T01:26:07.961Z,10.28
2023-03-13T01:27:07.947Z,10.23
2023-03-13T01:28:07.933Z,10.13
2023-03-13T01:29:07.904Z,10.07
2023-03-13T01:30:07.895Z,10.00
2023-03-13T01:31:07.962Z,9.95
2023-03-13T01:32:07.896Z,9.90
2023-03-13T01:33:07.908Z,9.88
2023-03-13T01:34:07.890Z,9.84
2023-03-13T01:35:07.863Z,9.85
2023-03-13T01:36:07.846Z,9.84
2023-03-13T01:37:07.840Z,9.81
2023-03-13T01:38:07.835Z,9.76
2023-03-13T01:39:07.807Z,9.76
2023-03-13T01:40:07.800Z,9.70
2023-03-13T01:41:07.790Z,9.69
2023-03-13T01:42:07.790Z,9.63
2023-03-13T01:43:09.892Z,9.59
2023-03-13T01:44:07.768Z,9.59
2023-03-13T01:45:07.732Z,9.59
2023-03-13T01:46:07.777Z,9.56
2023-03-13T01:47:07.744Z,9.54
2023-03-13T01:48:07.708Z,9.51
2023-03-13T01:49:07.713Z,9.62
2023-03-13T01:50:07.688Z,9.62
2023-03-13T01:51:07.693Z,9.67
2023-03-13T01:52:07.666Z,9.73
2023-03-13T01:53:07.664Z,9.81
2023-03-13T01:54:07.644Z,9.82
2023-03-13T01:55:07.626Z,9.82
2023-03-13T01:56:07.641Z,9.77
2023-03-13T01:57:07.607Z,9.74
2023-03-13T01:58:07.629Z,9.77
2023-03-13T01:59:07.577Z,9.85
2023-03-13T02:00:07.583Z,9.91
2023-03-13T02:01:07.578Z,9.95
2023-03-13T02:02:07.684Z,10.06
2023-03-13T02:03:07.571Z,10.10
2023-03-13T02:04:07.526Z,10.10
2023-03-13T02:05:07.536Z,10.07
2023-03-13T02:06:07.510Z,10.05
2023-03-13T02:07:07.504Z,9.99
2023-03-13T02:08:07.486Z,9.94
2023-03-13T02:09:07.482Z,9.92
2023-03-13T02:10:07.462Z,9.90
2023-03-13T02:11:07.462Z,9.88
2023-03-13T02:12:07.494Z,9.77
2023-03-13T02:13:07.429Z,9.72
2023-03-13T02:14:07.430Z,9.67
2023-03-13T02:15:07.401Z,9.63
2023-03-13T02:16:07.460Z,9.54
2023-03-13T02:17:07.385Z,9.47
2023-03-13T02:18:07.416Z,9.37
2023-03-13T02:19:07.388Z,9.40
2023-03-13T02:20:07.360Z,9.37
2023-03-13T02:21:07.353Z,9.34
2023-03-13T02:22:07.370Z,9.30
2023-03-13T02:23:07.331Z,9.29
2023-03-13T02:24:07.314Z,9.24
2023-03-13T02:25:07.321Z,9.22
2023-03-13T02:26:07.304Z,9.18
2023-03-13T02:27:07.281Z,9.12
2023-03-13T02:28:07.269Z,9.13
2023-03-13T02:29:07.268Z,9.18
2023-03-13T02:30:07.262Z,9.19
2023-03-13T02:31:07.305Z,9.12
2023-03-13T02:32:07.237Z,9.08
2023-03-13T02:33:07.206Z,9.09
2023-03-13T02:34:07.197Z,9.02
2023-03-13T02:35:07.195Z,9.00
2023-03-13T02:36:07.204Z,8.97
2023-03-13T02:37:07.171Z,8.96
2023-03-13T02:38:07.167Z,9.00
2023-03-13T02:39:07.156Z,9.03
2023-03-13T02:40:07.141Z,9.08
2023-03-13T02:41:07.140Z,9.11
2023-03-13T02:42:07.144Z,9.08
2023-03-13T02:43:07.106Z,9.08
2023-03-13T02:44:07.182Z,9.09
2023-03-13T02:45:07.096Z,9.03
2023-03-13T02:46:07.103Z,9.12
2023-03-13T02:47:07.208Z,9.16
2023-03-13T02:48:07.074Z,9.19
2023-03-13T02:49:07.038Z,9.22
2023-03-13T02:50:07.042Z,9.21
2023-03-13T02:51:07.029Z,9.21
2023-03-13T02:52:07.042Z,9.22
2023-03-13T02:53:07.033Z,9.21
2023-03-13T02:54:06.990Z,9.22
2023-03-13T02:55:06.984Z,9.24
2023-03-13T02:56:06.992Z,9.26
2023-03-13T02:57:06.966Z,9.29
2023-03-13T02:58:06.958Z,9.31
2023-03-13T02:59:06.999Z,9.26
2023-03-13T03:00:06.942Z,9.19
2023-03-13T03:01:07.018Z,9.15
2023-03-13T03:02:06.912Z,9.13
2023-03-13T03:03:06.969Z,9.09
2023-03-13T03:04:06.937Z,9.09
2023-03-13T03:05:06.895Z,9.08
2023-03-13T03:06:06.892Z,9.03
2023-03-13T03:07:06.877Z,9.02
2023-03-13T03:08:06.874Z,9.05
2023-03-13T03:09:06.834Z,9.05
2023-03-13T03:10:06.835Z,9.05
2023-03-13T03:11:06.837Z,9.02
2023-03-13T03:12:06.836Z,9.02
2023-03-13T03:13:06.823Z,9.00
2023-03-13T03:14:06.785Z,9.02
2023-03-13T03:15:06.774Z,9.00
2023-03-13T03:16:06.896Z,9.00
2023-03-13T03:19:43.811Z,8.99
2023-03-13T03:20:30.486Z,8.95
2023-03-13T03:21:30.534Z,8.90
2023-03-13T03:22:30.474Z,8.90
2023-03-13T03:23:30.515Z,8.90
2023-03-13T03:24:30.453Z,8.92
2023-03-13T03:25:30.408Z,8.90
2023-03-13T03:26:30.398Z,8.93
2023-03-13T03:27:30.418Z,8.93
2023-03-13T03:28:30.361Z,8.93
2023-03-13T03:29:30.370Z,8.90
2023-03-13T03:30:30.353Z,8.92
2023-03-13T03:31:30.412Z,8.90
2023-03-13T03:32:30.406Z,8.90
2023-03-13T03:33:30.346Z,8.92
2023-03-13T03:34:30.344Z,8.90
2023-03-13T03:35:30.336Z,8.87
2023-03-13T03:36:30.288Z,8.89
2023-03-13T03:37:30.310Z,8.90
2023-03-13T03:38:30.266Z,8.90
2023-03-13T03:39:30.247Z,8.92
2023-03-13T03:40:30.250Z,8.92
2023-03-13T03:41:30.237Z,8.93
2023-03-13T03:42:30.274Z,8.96
2023-03-13T03:43:30.207Z,9.19
2023-03-13T03:44:30.207Z,9.36
2023-03-13T03:45:30.217Z,9.39
2023-03-13T03:46:30.200Z,9.36
2023-03-13T03:47:30.280Z,9.33
2023-03-13T03:48:30.149Z,9.31
2023-03-13T03:49:30.154Z,9.30
2023-03-13T03:50:30.133Z,9.30
2023-03-13T03:51:30.123Z,9.39
2023-03-13T03:52:30.153Z,9.56
2023-03-13T03:53:30.140Z,9.54
2023-03-13T03:54:30.093Z,9.48
2023-03-13T03:55:30.091Z,9.52
2023-03-13T03:56:30.078Z,9.51
2023-03-13T03:57:30.080Z,9.52
2023-03-13T03:58:30.060Z,9.47
2023-03-13T03:59:30.027Z,9.47
2023-03-13T04:00:30.025Z,9.51
2023-03-13T04:01:30.027Z,9.54
2023-03-13T04:02:30.086Z,9.55
2023-03-13T04:03:30.022Z,9.55
2023-03-13T04:04:30.001Z,9.54
2023-03-13T04:05:29.989Z,9.47
2023-03-13T04:06:29.975Z,9.48
2023-03-13T04:07:29.973Z,9.52
2023-03-13T04:08:29.936Z,9.56
2023-03-13T04:09:31.919Z,9.59
2023-03-13T04:10:29.939Z,9.58
2023-03-13T04:11:29.955Z,9.58
2023-03-13T04:12:29.910Z,9.52
2023-03-13T04:13:29.876Z,9.59
2023-03-13T04:14:29.886Z,9.66
2023-03-13T04:15:29.856Z,9.74
2023-03-13T04:16:29.865Z,9.82
2023-03-13T04:17:29.857Z,10.07
2023-03-13T04:18:29.846Z,10.20
2023-03-13T04:19:29.846Z,10.25
2023-03-13T04:20:29.837Z,10.28
2023-03-13T04:21:29.812Z,10.28
2023-03-13T04:22:29.802Z,10.27
2023-03-13T04:23:29.828Z,10.24
2023-03-13T04:24:29.774Z,10.21
2023-03-13T04:25:29.760Z,10.21
2023-03-13T04:26:29.739Z,10.21
2023-03-13T04:27:29.816Z,10.21
2023-03-13T04:28:29.737Z,10.18
2023-03-13T04:29:29.712Z,10.15
2023-03-13T04:30:29.766Z,10.13
2023-03-13T04:31:29.706Z,10.12
2023-03-13T04:32:29.720Z,10.13
2023-03-13T04:33:29.670Z,10.12
2023-03-13T04:34:29.656Z,10.15
2023-03-13T04:35:29.685Z,10.23
2023-03-13T04:36:29.665Z,10.24
2023-03-13T04:37:29.643Z,10.21
2023-03-13T04:38:29.622Z,10.21
2023-03-13T04:39:30.981Z,10.21
2023-03-13T04:40:29.594Z,10.21
2023-03-13T04:41:29.602Z,10.18
2023-03-13T04:42:29.604Z,10.15
2023-03-13T04:43:29.559Z,10.13
2023-03-13T04:44:29.551Z,10.12
2023-03-13T04:45:29.545Z,10.10
2023-03-13T04:46:29.609Z,10.09
2023-03-13T04:47:29.560Z,10.13
2023-03-13T04:48:29.550Z,10.17
2023-03-13T04:49:29.530Z,10.12
2023-03-13T04:50:29.491Z,10.10
2023-03-13T04:51:29.507Z,10.10
2023-03-13T04:52:29.518Z,10.13
2023-03-13T04:53:29.498Z,10.12
2023-03-13T04:54:29.459Z,10.07
2023-03-13T04:55:29.428Z,10.09
2023-03-13T04:56:42.097Z,10.15
2023-03-13T04:57:29.438Z,10.23
2023-03-13T04:58:29.409Z,10.13
2023-03-13T04:59:29.429Z,10.15
2023-03-13T05:00:29.410Z,10.17
2023-03-13T05:01:29.479Z,10.13
2023-03-13T05:02:29.393Z,10.17
2023-03-13T05:03:29.358Z,10.23
2023-03-13T05:04:29.353Z,10.21
2023-03-13T05:05:29.426Z,10.20
2023-03-13T05:06:29.312Z,10.20
2023-03-13T05:07:29.336Z,10.09
2023-03-13T05:08:29.318Z,10.09
2023-03-13T05:09:29.298Z,10.09
2023-03-13T05:10:29.340Z,10.03
2023-03-13T05:11:29.294Z,10.00
2023-03-13T05:12:29.274Z,9.99
2023-03-13T05:13:29.269Z,9.97
2023-03-13T05:14:29.225Z,10.02
2023-03-13T05:15:29.261Z,10.05
2023-03-13T05:16:29.213Z,10.06
2023-03-13T05:17:29.210Z,10.00
2023-03-13T05:18:29.195Z,10.00
2023-03-13T05:19:29.180Z,10.03
2023-03-13T05:20:29.168Z,10.07
2023-03-13T05:21:29.191Z,10.10
2023-03-13T05:22:29.166Z,9.97
2023-03-13T05:23:29.143Z,9.95
2023-03-13T05:24:29.122Z,10.05
2023-03-13T05:25:29.070Z,10.02
2023-03-13T05:26:29.066Z,10.00
2023-03-13T05:27:29.079Z,10.03
2023-03-13T05:28:29.038Z,9.97
2023-03-13T05:29:29.055Z,9.97
2023-03-13T05:30:29.012Z,9.99
2023-03-13T05:31:29.080Z,9.95
2023-03-13T05:32:29.052Z,9.92
2023-03-13T05:33:28.991Z,9.91
2023-03-13T05:34:28.982Z,9.88
2023-03-13T05:35:29.015Z,9.90
2023-03-13T05:36:28.948Z,9.85
2023-03-13T05:37:28.975Z,9.90
2023-03-13T05:38:28.922Z,9.94
2023-03-13T05:39:28.930Z,9.91
2023-03-13T05:40:28.897Z,9.99
2023-03-13T05:41:28.921Z,10.02
2023-03-13T05:42:28.912Z,10.02
2023-03-13T05:43:28.868Z,9.94
2023-03-13T05:44:28.865Z,10.00
2023-03-13T05:45:28.850Z,10.06
2023-03-13T05:46:28.884Z,10.02
2023-03-13T05:47:28.851Z,10.03
2023-03-13T05:48:28.825Z,10.02
2023-03-13T05:49:28.807Z,10.02
2023-03-13T05:50:28.790Z,10.03
2023-03-13T05:51:28.791Z,9.97
2023-03-13T05:52:28.773Z,9.91
2023-03-13T05:53:28.767Z,9.91
2023-03-13T05:54:28.755Z,9.95
2023-03-13T05:55:28.750Z,9.95
2023-03-13T05:56:28.734Z,9.95
2023-03-13T05:57:28.772Z,9.84
2023-03-13T05:58:28.697Z,9.77
2023-03-13T05:59:28.703Z,9.74
2023-03-13T06:00:28.683Z,9.74
2023-03-13T06:01:28.669Z,9.84
2023-03-13T06:02:28.691Z,9.82
2023-03-13T06:03:28.805Z,9.82
2023-03-13T06:04:28.777Z,9.76
2023-03-13T06:05:28.632Z,9.76
2023-03-13T06:06:28.607Z,9.77
2023-03-13T06:07:28.628Z,9.80
2023-03-13T06:08:28.594Z,9.84
2023-03-13T06:09:28.593Z,9.85
2023-03-13T06:10:28.568Z,9.88
2023-03-13T06:11:28.563Z,9.90
2023-03-13T06:12:28.609Z,9.90
2023-03-13T06:13:28.547Z,9.84
2023-03-13T06:14:28.530Z,9.80
2023-03-13T06:15:28.534Z,9.76
2023-03-13T06:16:28.563Z,9.76
2023-03-13T06:17:28.519Z,9.77
2023-03-13T06:18:28.511Z,9.80
2023-03-13T06:19:28.513Z,9.77
2023-03-13T06:20:28.461Z,9.74
2023-03-13T06:21:28.461Z,9.70
2023-03-13T06:22:28.490Z,9.72
2023-03-13T06:23:28.439Z,9.74
2023-03-13T06:24:28.413Z,9.74
2023-03-13T06:25:28.422Z,9.77
2023-03-13T06:26:28.394Z,9.80
2023-03-13T06:27:28.418Z,9.80
2023-03-13T06:28:28.376Z,9.81
2023-03-13T06:29:28.374Z,9.81
2023-03-13T06:30:28.380Z,9.85
2023-03-13T06:31:28.411Z,9.85
2023-03-13T06:32:28.487Z,9.88
2023-03-13T06:33:28.490Z,9.92
2023-03-13T06:34:28.311Z,9.95
2023-03-13T06:35:28.302Z,9.97
2023-03-13T06:36:28.368Z,10.00
2023-03-13T06:37:28.303Z,10.02
2023-03-13T06:38:28.266Z,10.05
2023-03-13T06:39:28.272Z,10.02
2023-03-13T06:40:28.254Z,10.02
2023-03-13T06:41:28.241Z,9.99
2023-03-13T06:42:28.237Z,9.99
2023-03-13T06:43:28.239Z,9.99
2023-03-13T06:44:28.209Z,10.00
2023-03-13T06:45:28.190Z,10.00
2023-03-13T06:46:28.245Z,10.03
2023-03-13T06:47:28.206Z,10.06
2023-03-13T06:48:28.171Z,10.07
2023-03-13T06:49:28.176Z,10.07
2023-03-13T06:50:28.138Z,10.09
2023-03-13T06:51:28.132Z,10.10
2023-03-13T06:52:41.198Z,10.15
2023-03-13T06:53:28.123Z,10.20
2023-03-13T06:54:28.127Z,10.20
2023-03-13T06:55:28.077Z,10.27
2023-03-13T06:56:28.092Z,10.20
2023-03-13T06:57:28.072Z,10.20
2023-03-13T06:58:32.417Z,10.23
2023-03-13T06:59:28.069Z,10.34
2023-03-13T07:00:28.023Z,10.59
2023-03-13T07:01:28.119Z,10.98
2023-03-13T07:02:28.011Z,11.26
2023-03-13T07:03:28.087Z,11.41
2023-03-13T07:04:28.031Z,11.58
2023-03-13T07:05:27.981Z,11.67
2023-03-13T07:06:27.971Z,11.73
2023-03-13T07:07:32.342Z,11.76
2023-03-13T07:08:27.952Z,12.14
2023-03-13T07:09:27.956Z,12.37
2023-03-13T07:10:27.948Z,12.63
2023-03-13T07:11:27.912Z,12.80
2023-03-13T07:12:27.902Z,12.95
2023-03-13T07:13:27.913Z,13.08
2023-03-13T07:14:27.880Z,13.12
2023-03-13T07:15:27.879Z,13.12
2023-03-13T07:16:27.923Z,13.09
2023-03-13T07:17:27.911Z,13.01
2023-03-13T07:18:27.836Z,13.06
2023-03-13T07:19:27.838Z,13.09
2023-03-13T07:20:28.040Z,13.20
2023-03-13T07:21:27.823Z,13.23
2023-03-13T07:22:27.810Z,13.20
2023-03-13T07:23:27.792Z,13.12
2023-03-13T07:24:27.801Z,13.20
2023-03-13T07:25:27.761Z,13.23
2023-03-13T07:26:27.786Z,13.13
2023-03-13T07:27:27.832Z,13.17
2023-03-13T07:28:27.735Z,13.20
2023-03-13T07:29:27.784Z,13.13
2023-03-13T07:30:27.714Z,13.09
2023-03-13T07:31:27.772Z,13.13
2023-03-13T07:32:27.728Z,13.23
2023-03-13T07:33:27.674Z,13.40
2023-03-13T07:34:27.665Z,13.49
2023-03-13T07:35:27.652Z,13.62
2023-03-13T07:36:27.665Z,13.71
2023-03-13T07:37:27.642Z,13.76
2023-03-13T07:38:27.618Z,13.82
2023-03-13T07:39:27.616Z,13.91
2023-03-13T07:40:27.654Z,13.87
2023-03-13T07:41:27.590Z,13.86
2023-03-13T07:42:27.580Z,13.89
2023-03-13T07:43:27.570Z,13.83
2023-03-13T07:44:27.562Z,13.79
2023-03-13T07:45:27.557Z,13.67
2023-03-13T07:46:27.533Z,13.65
2023-03-13T07:47:27.541Z,13.75
2023-03-13T07:48:27.504Z,13.87
2023-03-13T07:49:27.506Z,13.94
2023-03-13T07:50:27.727Z,14.00
2023-03-13T07:51:42.145Z,13.85
2023-03-13T07:52:27.476Z,13.73
2023-03-13T07:53:27.509Z,13.61
2023-03-13T07:54:27.441Z,13.50
2023-03-13T07:55:27.437Z,13.61
2023-03-13T07:56:27.423Z,13.75
2023-03-13T07:57:27.463Z,13.83
2023-03-13T07:58:27.409Z,13.95
2023-03-13T07:59:27.410Z,14.05
2023-03-13T08:00:27.425Z,14.30
2023-03-13T08:01:30.271Z,14.38
2023-03-13T08:02:27.423Z,14.43
2023-03-13T08:03:27.478Z,14.44
2023-03-13T08:04:27.336Z,14.41
2023-03-13T08:05:27.333Z,14.44
2023-03-13T08:06:27.317Z,14.55
2023-03-13T08:07:27.313Z,14.62
2023-03-13T08:08:27.295Z,14.66
2023-03-13T08:09:27.285Z,14.70
2023-03-13T08:10:27.307Z,14.70
2023-03-13T08:11:27.284Z,14.63
2023-03-13T08:12:27.278Z,14.59
2023-03-13T08:13:27.236Z,14.62
2023-03-13T08:14:27.230Z,14.62
2023-03-13T08:15:27.259Z,14.68
2023-03-13T08:16:27.343Z,14.68
2023-03-13T08:17:27.203Z,14.70
2023-03-13T08:18:27.181Z,14.67
2023-03-13T08:19:27.187Z,14.71
2023-03-13T08:20:27.181Z,14.68
2023-03-13T08:21:27.163Z,14.62
2023-03-13T08:22:27.556Z,14.55
2023-03-13T08:23:27.133Z,14.45
2023-03-13T08:24:27.139Z,14.41
2023-03-13T08:25:27.111Z,14.36
2023-03-13T08:26:27.100Z,14.34
2023-03-13T08:27:27.139Z,14.28
2023-03-13T08:28:27.096Z,14.26
2023-03-13T08:29:27.072Z,14.28
2023-03-13T08:30:27.216Z,14.26
2023-03-13T08:31:27.067Z,14.20
2023-03-13T08:32:27.102Z,14.16
2023-03-13T08:33:27.020Z,14.20
2023-03-13T08:34:27.036Z,14.28
2023-03-13T08:35:27.039Z,14.30
2023-03-13T08:36:26.984Z,14.34
2023-03-13T08:37:27.012Z,14.45
2023-03-13T08:38:26.961Z,14.51
2023-03-13T08:39:26.962Z,14.51
2023-03-13T08:40:26.955Z,14.49
2023-03-13T08:41:26.935Z,14.44
2023-03-13T08:42:26.940Z,14.49
2023-03-13T08:43:26.914Z,14.48
2023-03-13T08:44:26.905Z,14.48
2023-03-13T08:45:26.901Z,14.49
2023-03-13T08:46:26.940Z,14.45
2023-03-13T08:47:26.908Z,14.41
2023-03-13T08:48:26.871Z,14.45
2023-03-13T08:49:26.849Z,14.48
2023-03-13T08:50:26.845Z,14.55
2023-03-13T08:51:26.830Z,14.51
2023-03-13T08:52:26.865Z,14.44
2023-03-13T08:53:26.834Z,14.34
2023-03-13T08:54:26.802Z,14.36
2023-03-13T08:55:26.804Z,14.37
2023-03-13T08:56:26.805Z,14.28
2023-03-13T08:57:26.771Z,14.28
2023-03-13T08:58:26.762Z,14.23
2023-03-13T08:59:26.742Z,14.16
2023-03-13T09:00:26.729Z,14.08
2023-03-13T09:01:26.842Z,14.05
2023-03-13T09:02:26.882Z,14.04
2023-03-13T09:03:26.707Z,14.12
2023-03-13T09:04:26.701Z,14.16
2023-03-13T09:05:26.681Z,14.19
2023-03-13T09:06:26.672Z,14.19
2023-03-13T09:07:26.664Z,14.11
2023-03-13T09:08:26.656Z,14.12
2023-03-13T09:09:26.634Z,14.15
2023-03-13T09:10:26.658Z,14.20
2023-03-13T09:11:26.646Z,14.20
2023-03-13T09:12:31.211Z,14.30
2023-03-13T09:13:26.608Z,14.36
2023-03-13T09:14:26.647Z,14.41
2023-03-13T09:15:26.577Z,14.53
2023-03-13T09:16:26.585Z,14.51
2023-03-13T09:17:26.556Z,14.48
2023-03-13T09:18:26.856Z,14.44
2023-03-13T09:19:26.552Z,14.49
2023-03-13T09:20:26.542Z,14.52
2023-03-13T09:21:26.505Z,14.55
2023-03-13T09:22:26.522Z,14.73
2023-03-13T09:23:26.496Z,14.74
2023-03-13T09:24:26.502Z,14.86
2023-03-13T09:25:26.481Z,14.89
2023-03-13T09:26:26.480Z,14.90
2023-03-13T09:27:26.482Z,14.81
2023-03-13T09:28:26.791Z,14.71
2023-03-13T09:29:26.454Z,14.70
2023-03-13T09:30:26.421Z,14.62
2023-03-13T09:31:26.504Z,14.53
2023-03-13T09:32:26.457Z,14.51
2023-03-13T09:33:26.407Z,14.40
2023-03-13T09:34:26.374Z,14.41
2023-03-13T09:35:26.353Z,14.38
2023-03-13T09:36:26.421Z,14.41
2023-03-13T09:37:26.340Z,14.49
2023-03-13T09:38:26.328Z,14.45
2023-03-13T09:39:26.338Z,14.52
2023-03-13T09:40:26.331Z,14.58
2023-03-13T09:41:26.309Z,14.59
2023-03-13T09:42:26.314Z,14.62
2023-03-13T09:43:26.276Z,14.70
2023-03-13T09:44:26.267Z,14.79
2023-03-13T09:45:26.251Z,14.81
2023-03-13T09:46:26.526Z,14.81
2023-03-13T09:47:26.337Z,14.90
2023-03-13T09:48:26.225Z,14.96
2023-03-13T09:49:26.213Z,14.96
2023-03-13T09:50:26.263Z,14.94
2023-03-13T09:51:26.197Z,14.97
2023-03-13T09:52:26.199Z,14.99
2023-03-13T09:53:26.238Z,14.96
2023-03-13T09:54:26.162Z,14.92
2023-03-13T09:55:26.142Z,14.90
2023-03-13T09:56:26.134Z,14.93
2023-03-13T09:57:26.207Z,14.90
2023-03-13T09:58:26.172Z,14.85
2023-03-13T09:59:26.096Z,14.86
2023-03-13T10:00:26.088Z,14.81
2023-03-13T10:01:26.190Z,14.79
2023-03-13T10:02:26.091Z,14.73
2023-03-13T10:03:26.110Z,14.74
2023-03-13T10:04:26.185Z,14.74
2023-03-13T10:05:26.049Z,14.82
2023-03-13T10:06:26.055Z,14.92
2023-03-13T10:07:26.020Z,14.93
2023-03-13T10:08:26.046Z,14.96
2023-03-13T10:09:25.993Z,15.00
2023-03-13T10:10:25.995Z,14.96
2023-03-13T10:11:25.984Z,14.92
2023-03-13T10:12:25.986Z,14.92
2023-03-13T10:13:27.859Z,14.97
2023-03-13T10:14:30.321Z,15.02
2023-03-13T10:15:25.978Z,15.07
2023-03-13T10:16:27.554Z,15.10
2023-03-13T10:17:27.237Z,15.07
2023-03-13T10:18:26.379Z,14.99
2023-03-13T10:19:25.932Z,15.07
2023-03-13T10:20:25.935Z,15.10
2023-03-13T10:22:07.631Z,15.11
2023-03-13T10:22:26.095Z,15.10
2023-03-13T10:23:26.339Z,15.08
2023-03-13T10:24:25.947Z,15.08
2023-03-13T10:25:30.213Z,15.07
2023-03-13T10:26:25.818Z,15.02
2023-03-13T10:27:25.815Z,14.96
2023-03-13T10:28:25.888Z,14.99
2023-03-13T10:29:25.793Z,15.08
2023-03-13T10:30:25.844Z,15.10
2023-03-13T10:31:25.849Z,15.12
2023-03-13T10:32:25.836Z,15.11
2023-03-13T10:33:25.727Z,15.18
2023-03-13T10:34:25.745Z,15.22
2023-03-13T10:35:25.708Z,15.19
2023-03-13T10:36:25.701Z,15.18
2023-03-13T10:37:25.693Z,15.22
2023-03-13T10:38:25.840Z,15.18
2023-03-13T10:39:25.751Z,15.19
2023-03-13T10:40:25.663Z,15.22
2023-03-13T10:41:25.654Z,15.22
2023-03-13T10:42:25.650Z,15.17
2023-03-13T10:43:25.614Z,15.17
2023-03-13T10:44:25.611Z,15.22
2023-03-13T10:45:25.654Z,15.19
2023-03-13T10:46:25.646Z,15.23
2023-03-13T10:47:25.580Z,15.30
2023-03-13T10:48:25.562Z,15.26
2023-03-13T10:49:25.550Z,15.27
2023-03-13T10:50:25.552Z,15.26
2023-03-13T10:51:25.538Z,15.26
2023-03-13T10:52:25.552Z,15.26
2023-03-13T10:53:25.545Z,15.23
2023-03-13T10:54:25.683Z,15.22
2023-03-13T10:55:25.509Z,15.23
2023-03-13T10:56:25.528Z,15.26
2023-03-13T10:57:25.487Z,15.30
2023-03-13T10:58:25.453Z,15.30
2023-03-13T10:59:25.444Z,15.26
2023-03-13T11:00:25.443Z,15.23
2023-03-13T11:01:25.459Z,15.18
2023-03-13T11:02:25.494Z,15.10
2023-03-13T11:03:25.547Z,15.05
2023-03-13T11:04:25.406Z,14.94
2023-03-13T11:05:25.407Z,14.89
2023-03-13T11:06:25.382Z,14.82
2023-03-13T11:07:25.381Z,14.81
2023-03-13T11:08:25.444Z,14.79
2023-03-13T11:09:25.335Z,14.78
2023-03-13T11:10:25.330Z,14.74
2023-03-13T11:11:25.338Z,14.77
2023-03-13T11:12:25.314Z,14.78
2023-03-13T11:13:36.113Z,14.81
2023-03-13T11:14:25.309Z,14.87
2023-03-13T11:15:25.429Z,15.00
2023-03-13T11:16:25.351Z,15.19
2023-03-13T11:17:25.272Z,15.37
2023-03-13T11:18:25.280Z,15.50
2023-03-13T11:19:25.248Z,15.51
2023-03-13T11:20:25.222Z,15.55
2023-03-13T11:21:25.222Z,15.59
2023-03-13T11:22:25.264Z,15.62
2023-03-13T11:23:25.203Z,15.66
2023-03-13T11:24:25.185Z,15.69
2023-03-13T11:25:25.191Z,15.70
2023-03-13T11:26:25.158Z,15.75
2023-03-13T11:27:25.170Z,15.75
2023-03-13T11:28:25.158Z,15.70
2023-03-13T11:29:25.153Z,15.69
2023-03-13T11:30:25.136Z,15.65
2023-03-13T11:31:25.160Z,15.63
2023-03-13T11:32:25.182Z,15.54
2023-03-13T11:33:25.089Z,15.50
2023-03-13T11:34:25.073Z,15.51
2023-03-13T11:35:25.066Z,15.55
2023-03-13T11:36:25.123Z,15.60
2023-03-13T11:37:25.041Z,15.62
2023-03-13T11:38:25.053Z,15.67
2023-03-13T11:39:25.013Z,15.75
2023-03-13T11:40:25.034Z,15.70
2023-03-13T11:41:25.070Z,15.67
2023-03-13T11:42:25.012Z,15.65
2023-03-13T11:43:26.128Z,15.55
2023-03-13T11:44:24.966Z,15.51
2023-03-13T11:45:24.993Z,15.51
2023-03-13T11:46:25.129Z,15.51
2023-03-13T11:47:24.953Z,15.47
2023-03-13T11:48:24.933Z,15.52
2023-03-13T11:49:24.911Z,15.52
2023-03-13T11:50:24.903Z,15.59
2023-03-13T11:51:24.935Z,15.63
2023-03-13T11:52:24.913Z,15.72
2023-03-13T11:53:24.949Z,15.81
2023-03-13T11:54:24.928Z,15.84
2023-03-13T11:55:24.846Z,15.83
2023-03-13T11:56:24.841Z,15.85
2023-03-13T11:57:24.819Z,15.90
2023-03-13T11:58:24.826Z,15.94
2023-03-13T11:59:24.875Z,16.03
2023-03-13T12:00:24.815Z,16.13
2023-03-13T12:01:24.782Z,16.32
2023-03-13T12:02:24.892Z,16.51
2023-03-13T12:03:24.860Z,16.65
2023-03-13T12:04:24.743Z,16.74
2023-03-13T12:05:24.828Z,16.74
2023-03-13T12:06:28.227Z,16.76
2023-03-13T12:07:24.739Z,16.80
2023-03-13T12:08:24.721Z,16.80
2023-03-13T12:09:26.667Z,16.74
2023-03-13T12:10:24.680Z,16.68
2023-03-13T12:11:24.678Z,16.65
2023-03-13T12:12:24.685Z,16.62
2023-03-13T12:13:24.675Z,16.64
2023-03-13T12:14:24.698Z,16.66
2023-03-13T12:15:24.621Z,16.77
2023-03-13T12:16:24.658Z,16.83
2023-03-13T12:17:24.628Z,16.89
2023-03-13T12:18:24.599Z,16.86
2023-03-13T12:19:24.576Z,16.74
2023-03-13T12:20:24.599Z,16.80
2023-03-13T12:21:24.606Z,16.92
2023-03-13T12:22:24.579Z,17.04
2023-03-13T12:23:24.690Z,17.09
2023-03-13T12:24:24.574Z,17.10
2023-03-13T12:25:24.675Z,17.16
2023-03-13T12:26:24.509Z,17.19
2023-03-13T12:27:24.544Z,17.22
2023-03-13T12:28:24.642Z,17.28
2023-03-13T12:29:24.475Z,17.30
2023-03-13T12:30:24.464Z,17.30
2023-03-13T12:31:24.506Z,17.32
2023-03-13T12:32:24.499Z,17.30
2023-03-13T12:33:24.482Z,17.30
2023-03-13T12:34:24.428Z,17.28
2023-03-13T12:35:24.420Z,17.24
2023-03-13T12:36:24.432Z,17.27
2023-03-13T12:37:24.409Z,17.27
2023-03-13T12:38:24.399Z,17.30
2023-03-13T12:39:24.370Z,17.32
2023-03-13T12:40:24.406Z,17.24
2023-03-13T12:41:24.374Z,17.22
2023-03-13T12:42:24.344Z,17.13
2023-03-13T12:43:24.365Z,17.04
2023-03-13T12:44:24.368Z,17.05
2023-03-13T12:45:24.442Z,17.13
2023-03-13T12:46:24.379Z,17.16
2023-03-13T12:47:26.356Z,17.20
2023-03-13T12:48:24.307Z,17.31
2023-03-13T12:49:24.272Z,17.34
2023-03-13T12:50:24.262Z,17.35
2023-03-13T12:51:24.314Z,17.32
2023-03-13T12:52:24.249Z,17.30
2023-03-13T12:53:24.240Z,17.27
2023-03-13T12:54:24.218Z,17.35
2023-03-13T12:55:24.217Z,17.37
2023-03-13T12:56:24.212Z,17.37
2023-03-13T12:57:24.203Z,17.44
2023-03-13T12:58:24.182Z,17.52
2023-03-13T12:59:24.175Z,17.49
2023-03-13T13:00:24.159Z,17.56
2023-03-13T13:01:24.284Z,17.72
2023-03-13T13:02:24.167Z,17.72
2023-03-13T13:03:24.127Z,17.75
2023-03-13T13:04:24.176Z,18.55